KALX/ALX METAR and TAF weather

Enter ICAO airport designator
Station Type Date Time Source
KALX METAR 2019/09/21 04:35 UTC NOAA

KALX 210435Z AUTO 00000KT 10SM CLR 19/12 A3024 RMK AO2 T01900122


Station Type Date Time Source
KALX Decoded METAR 2019/09/21 04:35 UTC NOAA

Alexander City, Thomas C Russell Field Airport, AL, United States (KALX) 32-54-53N 085-57-46W
Sep 21, 2019 - 12:35 AM EDT / 2019.09.21 0435 UTC
Wind: Calm:0
Visibility: 10 mile(s):0
Sky conditions: clear
Temperature: 66.2 F (19.0 C)
Dew Point: 54.0 F (12.2 C)
Relative Humidity: 64%
Pressure (altimeter): 30.24 in. Hg (1024 hPa)
ob: KALX 210435Z AUTO 00000KT 10SM CLR 19/12 A3024 RMK AO2 T01900122
cycle: 4

Station Type Date Time Source
KALX TAF UTC NOAA

Error!

Example: see airport list